KIJX

Details ICAO KIJX
Name JACKSONVILLE MUNI
Region United States
Timezone America/Chicago (UTC-6.0)
Plans Departing 2
Arriving 5
Stats Elevation 624 ft / 190 m (AMSL)
Location 39.774627° -90.238248°
Runways 2
Magnetic Variation 1.625° W
Sunrise 2017-12-17 13:17:51 UTC / 2017-12-17 07:17:51 Local
Sunset 2017-12-17 22:39:17 UTC / 2017-12-17 16:39:17 Local
Advertisement - Login to hide

Runways

ID Width Length Bearing (true) Bearing (mag) Surface Threshold Offset Overrun Length
04 75 ft / 23 m 4,001 ft / 1,219 m 44.89° 46.52° Asphalt 0 ft / 0 m 0 ft / 0 m
13 75 ft / 23 m 4,998 ft / 1,523 m 135.27° 136.90° Asphalt 0 ft / 0 m 0 ft / 0 m
22 75 ft / 23 m 4,001 ft / 1,219 m 224.89° 226.52° Asphalt 0 ft / 0 m 0 ft / 0 m
31 75 ft / 23 m 4,998 ft / 1,523 m 315.28° 316.91° Asphalt 0 ft / 0 m 0 ft / 0 m

Map

Weather


0- 5 10 15 20 25 30 35+ Temperature / ° C

Clouds and Precipitation
Forecast for 2017-12-18 00:00 UTC. Updated an hour ago

Ground ~20,000 ft ~40,000 ft Winds

METAR

KIJX 172155Z AUTO 15004KT 10SM SCT060 OVC070 09/03 A2999 RMK AO2 T00920033

TAF

Not found

Frequencies

Unicom 122.80 MHz CTAF/UNICOM
Approach 118.45 MHz SPRINGFIELD APP/DEP
Clearance 118.45 MHz CLNC DEL
Approach 126.15 MHz SPRINGFIELD APP/DEP
Warning: Do not use this data for real-world aviation or navigation. No guarantee of current accuracy is given.